Time;durP1;ratioP1;P1;durP2;ratioP2;P2;SDS_P1;SDS_P2;PMS_P1;PMS_P2;Temp;Humidity;BMP_temperature;BMP_pressure;BME280_temperature;BME280_humidity;BME280_pressure;Samples;Min_cycle;Max_cycle;Signal;HPM_P1;HPM_P2
2022/07/29 07:58:51;;;;;;;6.45;4.60;;;;;;;18.37;66.33;101498.91;5128883;27;6744730;-69
2022/07/29 08:01:22;;;;;;;9.63;4.97;;;;;;;18.34;66.37;101499.56;5342426;28;20031;-69
2022/07/29 08:03:54;;;;;;;5.68;4.57;;;;;;;18.29;66.19;101499.72;5338319;28;20140;-69
2022/07/29 08:06:25;;;;;;;9.10;4.60;;;;;;;18.85;65.00;101492.41;5322298;28;20020;-70
2022/07/29 08:08:58;;;;;;;7.35;4.00;;;;;;;18.86;64.86;101500.47;5322164;28;20110;-69
2022/07/29 08:11:30;;;;;;;7.15;4.78;;;;;;;19.03;64.12;101499.66;5325927;28;20165;-70
2022/07/29 08:14:04;;;;;;;5.75;3.20;;;;;;;19.36;61.98;101512.38;5328365;28;20052;-68
2022/07/29 08:16:35;;;;;;;7.55;4.82;;;;;;;18.95;63.26;101508.94;5342356;28;20031;-69
2022/07/29 08:19:07;;;;;;;5.80;4.70;;;;;;;18.96;64.68;101506.94;5343506;28;20064;-69
2022/07/29 08:21:38;;;;;;;4.85;4.35;;;;;;;18.93;65.33;101504.78;5340251;28;20061;-68
2022/07/29 08:26:59;;;;;;;6.32;4.85;;;;;;;19.06;64.00;101507.44;5328711;28;20029;-70
2022/07/29 08:29:31;;;;;;;5.22;4.35;;;;;;;19.19;64.27;101511.22;5320764;28;20028;-68
2022/07/29 08:32:03;;;;;;;5.55;4.47;;;;;;;19.34;64.14;101507.88;5343370;27;20019;-70
2022/07/29 08:34:35;;;;;;;5.72;4.82;;;;;;;19.42;63.43;101514.66;5343310;28;20031;-72
2022/07/29 08:37:06;;;;;;;7.88;3.50;;;;;;;19.87;61.46;101514.25;5323394;28;20024;-72
2022/07/29 08:39:37;;;;;;;10.10;4.80;;;;;;;19.91;61.08;101517.19;5339260;28;20106;-70
2022/07/29 08:42:11;;;;;;;7.95;4.68;;;;;;;20.22;59.43;101516.06;5329772;28;20023;-69
2022/07/29 08:44:42;;;;;;;5.85;4.13;;;;;;;20.10;60.24;101519.63;5337887;28;20103;-69
2022/07/29 08:47:14;;;;;;;6.57;4.15;;;;;;;20.26;58.49;101520.69;5321264;28;20134;-70
2022/07/29 08:49:48;;;;;;;5.88;3.95;;;;;;;20.27;58.22;101508.25;5321044;28;20490;-68
2022/07/29 08:52:20;;;;;;;7.63;4.00;;;;;;;20.34;58.42;101517.00;5328652;28;20463;-69
2022/07/29 08:54:53;;;;;;;33.40;29.02;;;;;;;20.25;59.19;101510.59;5328293;28;20081;-69
2022/07/29 08:57:25;;;;;;;42.45;34.80;;;;;;;20.25;59.92;101521.88;5337214;28;20050;-69
2022/07/29 08:59:59;;;;;;;6.55;5.00;;;;;;;20.24;60.97;101517.38;5321910;28;20475;-70
2022/07/29 09:02:38;;;;;;;7.00;5.05;;;;;;;20.26;60.54;101517.88;5321463;28;20024;-70
2022/07/29 09:05:10;;;;;;;6.07;5.07;;;;;;;20.41;59.75;101511.66;5320812;28;20039;-70
2022/07/29 09:07:43;;;;;;;7.28;4.35;;;;;;;20.54;59.36;101506.97;5321277;28;20023;-69
2022/07/29 09:10:14;;;;;;;5.80;4.50;;;;;;;20.54;59.03;101517.38;5316021;28;20027;-69
2022/07/29 09:12:46;;;;;;;9.77;4.78;;;;;;;20.63;58.15;101516.19;5315127;28;20027;-70
2022/07/29 09:15:18;;;;;;;6.90;4.93;;;;;;;20.74;58.48;101515.78;5316073;28;20024;-69
2022/07/29 09:17:49;;;;;;;7.75;5.32;;;;;;;20.64;58.93;101517.03;5309509;28;20032;-70
2022/07/29 09:20:22;;;;;;;5.47;4.97;;;;;;;20.59;58.84;101515.22;5306008;28;20032;-67
2022/07/29 09:22:53;;;;;;;6.50;4.15;;;;;;;20.76;57.38;101513.44;5309972;28;20052;-68
2022/07/29 09:25:35;;;;;;;9.23;7.47;;;;;;;20.71;57.91;101514.50;5307236;28;20467;-69
2022/07/29 09:28:12;;;;;;;7.38;4.50;;;;;;;20.71;56.63;101520.13;5315319;28;20023;-68
2022/07/29 09:31:00;;;;;;;5.57;3.70;;;;;;;20.93;57.24;101523.78;5316526;28;20111;-68
2022/07/29 09:33:38;;;;;;;5.78;3.85;;;;;;;21.02;57.81;101518.91;5304646;28;20521;-70
2022/07/29 09:36:11;;;;;;;7.05;3.92;;;;;;;21.05;56.38;101530.28;5307959;28;20027;-69
2022/07/29 09:38:42;;;;;;;11.57;7.88;;;;;;;21.09;55.66;101532.41;5323397;28;20024;-68
2022/07/29 09:41:13;;;;;;;4.40;3.50;;;;;;;20.99;55.11;101528.06;5325618;28;20042;-68
2022/07/29 09:43:55;;;;;;;4.15;3.25;;;;;;;21.03;56.34;101529.00;5314680;28;20024;-68
2022/07/29 09:46:26;;;;;;;7.97;4.57;;;;;;;21.05;56.80;101527.47;5293176;28;20039;-68
2022/07/29 09:49:09;;;;;;;7.13;4.28;;;;;;;21.04;56.65;101525.84;5305229;28;20387;-68
2022/07/29 09:51:41;;;;;;;8.27;4.30;;;;;;;21.10;56.00;101518.00;5324687;28;20076;-68
2022/07/29 09:54:27;;;;;;;5.97;4.00;;;;;;;21.09;56.60;101524.81;5317462;27;20709;-69
2022/07/29 09:56:59;;;;;;;6.53;3.47;;;;;;;21.41;56.27;101514.72;5323600;28;20039;-68
2022/07/29 09:59:30;;;;;;;5.97;3.40;;;;;;;21.57;55.05;101514.88;5324771;28;20103;-68
2022/07/29 10:02:11;;;;;;;6.10;3.25;;;;;;;21.58;54.44;101516.56;5315680;28;20045;-68
2022/07/29 10:04:42;;;;;;;5.55;3.50;;;;;;;21.73;54.39;101517.03;5318893;28;20031;-68
2022/07/29 10:07:14;;;;;;;3.85;3.28;;;;;;;21.92;53.22;101514.50;5319711;28;20115;-68
2022/07/29 10:09:54;;;;;;;5.47;3.58;;;;;;;21.76;52.81;101514.38;5310927;28;20028;-69
2022/07/29 10:12:25;;;;;;;5.25;3.10;;;;;;;21.86;52.34;101507.44;5313036;28;20458;-70
2022/07/29 10:14:57;;;;;;;5.18;3.40;;;;;;;21.95;52.72;101513.78;5318893;28;20027;-67
2022/07/29 10:17:28;;;;;;;5.88;3.13;;;;;;;22.09;51.92;101514.28;5324625;28;20024;-68
2022/07/29 10:20:00;;;;;;;5.55;2.90;;;;;;;22.03;51.64;101515.69;5320082;28;20110;-67
2022/07/29 10:22:38;;;;;;;4.20;3.13;;;;;;;21.99;51.90;101520.41;5313153;28;20027;-67
2022/07/29 10:25:10;;;;;;;5.07;3.22;;;;;;;21.79;51.12;101513.66;5309200;28;20044;-66
2022/07/29 10:27:50;;;;;;;7.32;4.30;;;;;;;21.87;52.50;101515.53;5324577;28;20068;-67
2022/07/29 10:30:24;;;;;;;4.63;3.53;;;;;;;21.70;51.24;101513.78;5314313;28;20458;-67
2022/07/29 10:33:17;;;;;;;9.68;3.17;;;;;;;21.71;50.92;101514.59;5325144;28;20019;-67
2022/07/29 10:36:04;;;;;;;5.43;3.70;;;;;;;21.82;50.01;101506.50;5310575;28;20133;-67
2022/07/29 10:38:54;;;;;;;8.60;5.03;;;;;;;22.07;50.87;101504.53;5319954;28;20435;-67
2022/07/29 10:41:45;;;;;;;7.60;5.78;;;;;;;22.22;50.92;101511.50;5324900;28;20118;-67
2022/07/29 10:44:22;;;;;;;8.40;4.15;;;;;;;22.39;50.74;101502.75;5321142;28;20019;-67
2022/07/29 10:46:54;;;;;;;4.25;2.72;;;;;;;22.42;50.35;101499.25;5322740;28;20448;-67
2022/07/29 10:49:26;;;;;;;9.50;5.32;;;;;;;22.57;50.86;101492.88;5318894;28;20031;-67
2022/07/29 10:52:06;;;;;;;12.43;10.65;;;;;;;22.68;49.86;101492.38;5318461;28;20024;-68
2022/07/29 10:54:47;;;;;;;6.32;3.53;;;;;;;22.73;50.09;101497.78;5308086;28;20077;-68
2022/07/29 10:57:30;;;;;;;6.95;5.28;;;;;;;22.74;49.11;101493.75;5314698;28;20515;-69
2022/07/29 11:00:04;;;;;;;6.63;3.35;;;;;;;22.79;47.91;101493.50;5314077;28;20023;-69
2022/07/29 11:02:36;;;;;;;7.82;5.45;;;;;;;22.91;48.78;101499.13;5318667;28;20028;-69
2022/07/29 11:05:08;;;;;;;7.72;3.22;;;;;;;23.01;48.34;101509.16;5304440;28;20035;-69
2022/07/29 11:08:17;;;;;;;9.45;5.05;;;;;;;23.06;48.70;101499.56;5315105;28;20031;-70
2022/07/29 11:10:51;;;;;;;9.35;3.42;;;;;;;23.02;48.72;101498.66;5316746;28;20048;-70
2022/07/29 11:13:47;;;;;;;8.02;3.30;;;;;;;23.08;48.04;101497.22;5310088;28;20028;-70
2022/07/29 11:16:23;;;;;;;5.82;2.70;;;;;;;23.09;48.17;101499.69;5315944;28;20072;-70
2022/07/29 11:19:13;;;;;;;3.70;2.90;;;;;;;23.22;47.73;101500.47;5322549;28;20051;-70
2022/07/29 11:21:47;;;;;;;3.80;2.40;;;;;;;23.35;47.32;101502.06;5308848;28;20038;-70
2022/07/29 11:24:28;;;;;;;16.48;3.72;;;;;;;23.40;47.47;101493.31;5324167;28;20478;-69
2022/07/29 11:27:17;;;;;;;5.38;3.15;;;;;;;23.46;47.87;101495.88;5318366;28;20543;-70
2022/07/29 11:29:52;;;;;;;5.95;2.97;;;;;;;23.37;46.73;101487.56;5314284;28;20058;-70
2022/07/29 11:32:25;;;;;;;3.50;2.78;;;;;;;23.62;47.17;101488.22;5322827;28;20103;-70
2022/07/29 11:35:23;;;;;;;6.90;3.10;;;;;;;23.68;47.00;101489.59;5320001;28;20046;-69
2022/07/29 11:38:22;;;;;;;6.20;2.75;;;;;;;23.87;46.99;101489.72;5303276;28;20063;-72
2022/07/29 11:41:22;;;;;;;5.25;2.90;;;;;;;23.82;47.06;101487.16;5313308;28;20030;-71
2022/07/29 11:43:58;;;;;;;9.30;3.20;;;;;;;23.93;46.02;101492.28;5317070;28;20047;-71
2022/07/29 11:46:46;;;;;;;4.35;2.70;;;;;;;23.97;45.98;101498.88;5317965;28;20047;-70
2022/07/29 11:49:22;;;;;;;7.20;3.22;;;;;;;23.91;45.23;101494.69;5316923;28;20024;-71
2022/07/29 11:52:00;;;;;;;11.95;8.05;;;;;;;24.02;44.53;101490.09;5312065;28;20562;-70
2022/07/29 11:54:35;;;;;;;3.78;2.65;;;;;;;24.18;44.36;101492.91;5316942;28;20081;-70
2022/07/29 11:57:07;;;;;;;6.13;4.40;;;;;;;23.89;44.33;101494.22;5308667;28;20406;-70
2022/07/29 11:59:41;;;;;;;22.02;16.80;;;;;;;24.01;44.81;101489.28;5312473;28;20042;-71
2022/07/29 12:02:13;;;;;;;5.32;3.60;;;;;;;24.30;45.37;101490.78;5318137;28;20088;-71
2022/07/29 12:04:55;;;;;;;4.78;2.58;;;;;;;24.29;44.05;101494.81;5317897;28;20024;-70
2022/07/29 12:07:31;;;;;;;4.57;3.10;;;;;;;24.35;44.41;101491.72;5322608;28;20387;-71
2022/07/29 12:10:04;;;;;;;10.45;7.28;;;;;;;24.41;44.62;101491.03;5323882;28;20031;-71
2022/07/29 12:12:37;;;;;;;6.78;3.63;;;;;;;24.44;44.22;101495.16;5324092;28;20059;-71
2022/07/29 12:15:13;;;;;;;3.17;2.42;;;;;;;24.60;44.29;101492.31;5323893;28;20543;-71
2022/07/29 12:17:44;;;;;;;7.40;3.45;;;;;;;24.77;44.96;101489.03;5322744;28;20383;-70
2022/07/29 12:20:24;;;;;;;5.55;2.38;;;;;;;24.70;45.12;101498.25;5311340;28;20016;-70
2022/07/29 12:22:56;;;;;;;6.97;3.35;;;;;;;24.66;44.57;101491.66;5302878;28;20506;-71
2022/07/29 12:25:33;;;;;;;5.47;3.42;;;;;;;24.82;44.29;101491.59;5323655;28;20023;-70
2022/07/29 12:28:09;;;;;;;5.05;2.35;;;;;;;25.09;41.52;101491.75;5310247;28;20024;-70
2022/07/29 12:30:44;;;;;;;4.75;2.22;;;;;;;24.91;41.42;101492.22;5313119;28;20077;-71
2022/07/29 12:33:23;;;;;;;4.28;2.40;;;;;;;25.14;41.61;101494.31;5316661;28;20490;-70
2022/07/29 12:35:57;;;;;;;4.57;2.20;;;;;;;25.07;41.60;101499.81;5312816;28;20046;-69
2022/07/29 12:38:31;;;;;;;8.10;5.10;;;;;;;24.99;41.44;101500.88;5315254;28;20024;-70
2022/07/29 12:41:03;;;;;;;5.82;2.60;;;;;;;24.83;41.70;101489.59;5324753;28;20387;-69
2022/07/29 12:43:34;;;;;;;8.98;2.72;;;;;;;25.00;42.24;101489.13;5319187;28;20020;-69
2022/07/29 12:46:14;;;;;;;5.88;2.47;;;;;;;25.33;42.01;101484.97;5327128;28;20020;-69
2022/07/29 12:48:54;;;;;;;3.03;2.00;;;;;;;25.38;42.41;101491.16;5323640;28;20035;-70
2022/07/29 12:51:34;;;;;;;4.78;2.90;;;;;;;25.49;41.76;101487.69;5326313;28;20054;-70
2022/07/29 12:54:10;;;;;;;6.18;2.47;;;;;;;25.27;42.09;101487.28;5320182;28;20509;-68
2022/07/29 12:56:44;;;;;;;4.60;2.72;;;;;;;25.65;41.88;101484.78;5315708;28;20020;-70
2022/07/29 12:59:18;;;;;;;107.35;96.22;;;;;;;25.37;41.88;101488.72;5320618;28;20069;-71
2022/07/29 13:01:51;;;;;;;20.95;18.38;;;;;;;25.48;41.74;101489.72;5320334;28;20047;-68
2022/07/29 13:04:28;;;;;;;6.43;3.35;;;;;;;25.47;41.51;101479.56;5322378;28;20483;-68
2022/07/29 13:07:03;;;;;;;4.75;3.45;;;;;;;25.71;40.90;101486.09;5327797;28;20042;-68
2022/07/29 13:09:39;;;;;;;5.65;3.40;;;;;;;25.75;41.27;101484.16;5309611;28;20023;-68
2022/07/29 13:12:13;;;;;;;8.23;3.33;;;;;;;25.72;41.10;101479.19;5315449;28;20442;-69
2022/07/29 13:14:47;;;;;;;5.70;3.05;;;;;;;25.74;41.02;101485.31;5321899;28;20053;-69
2022/07/29 13:17:22;;;;;;;4.43;2.22;;;;;;;25.70;40.66;101484.47;5326598;28;20052;-70
2022/07/29 13:20:08;;;;;;;9.93;3.28;;;;;;;26.15;40.19;101486.47;5317891;28;20111;-69
2022/07/29 13:22:42;;;;;;;8.07;3.10;;;;;;;25.85;40.34;101485.53;5320570;28;20023;-69
2022/07/29 13:25:13;;;;;;;4.35;2.38;;;;;;;25.85;39.97;101483.53;5326647;28;20030;-69
2022/07/29 13:27:47;;;;;;;4.78;2.60;;;;;;;25.94;40.19;101486.94;5318867;28;20569;-69
2022/07/29 13:30:19;;;;;;;10.43;8.97;;;;;;;26.14;40.39;101481.19;5316936;28;20445;-69
2022/07/29 13:32:51;;;;;;;4.55;2.70;;;;;;;26.20;39.63;101483.31;5315440;28;20305;-70
2022/07/29 13:35:23;;;;;;;4.47;2.50;;;;;;;26.12;39.59;101477.88;5326318;28;20066;-69
2022/07/29 13:37:54;;;;;;;5.80;4.80;;;;;;;26.14;40.32;101484.03;5318877;28;20118;-69
2022/07/29 13:40:25;;;;;;;6.13;2.95;;;;;;;26.32;40.18;101473.75;5305183;28;20024;-68
2022/07/29 13:42:59;;;;;;;4.30;2.95;;;;;;;26.25;39.48;101479.31;5320391;28;20027;-69
2022/07/29 13:45:30;;;;;;;4.50;3.13;;;;;;;26.46;39.54;101479.66;5322186;28;20356;-68
2022/07/29 13:48:03;;;;;;;5.53;2.63;;;;;;;26.72;39.64;101478.03;5326655;28;20024;-68
2022/07/29 13:50:34;;;;;;;4.07;2.63;;;;;;;26.54;39.12;101476.94;5320740;28;20107;-67
2022/07/29 13:53:05;;;;;;;5.15;3.58;;;;;;;26.97;39.51;101469.81;5314988;28;20182;-67
2022/07/29 13:55:37;;;;;;;4.00;2.10;;;;;;;27.20;37.79;101478.25;5323680;28;20012;-67
2022/07/29 13:58:08;;;;;;;5.75;2.38;;;;;;;27.14;37.71;101474.06;5312764;28;20048;-67
2022/07/29 14:00:39;;;;;;;4.40;2.05;;;;;;;27.16;37.70;101477.34;5316406;28;20058;-68
2022/07/29 14:03:11;;;;;;;5.13;2.50;;;;;;;27.33;37.73;101490.19;5323477;28;20023;-67
2022/07/29 14:05:42;;;;;;;6.03;2.58;;;;;;;27.28;36.06;101479.97;5327070;28;20028;-68
2022/07/29 14:08:15;;;;;;;4.82;2.40;;;;;;;27.00;36.17;101476.75;5324400;28;20039;-70
2022/07/29 14:10:46;;;;;;;5.15;3.05;;;;;;;26.68;36.27;101479.97;5325455;28;20455;-68
2022/07/29 14:13:17;;;;;;;5.03;2.38;;;;;;;26.68;36.37;101479.97;5322889;28;20102;-70
2022/07/29 14:15:52;;;;;;;6.70;2.33;;;;;;;26.50;36.24;101481.72;5309634;28;20080;-70
2022/07/29 14:18:23;;;;;;;3.80;3.27;;;;;;;26.54;36.49;101482.66;5308577;28;20024;-70
2022/07/29 14:20:54;;;;;;;4.32;2.95;;;;;;;26.60;37.11;101478.25;5310771;28;20028;-70
2022/07/29 14:23:26;;;;;;;12.65;8.27;;;;;;;26.98;35.75;101470.63;5325318;28;20016;-71
2022/07/29 14:25:57;;;;;;;7.13;4.22;;;;;;;27.11;35.89;101474.84;5325513;28;20467;-71
2022/07/29 14:28:28;;;;;;;4.15;2.78;;;;;;;26.84;35.57;101483.47;5316924;28;20036;-70
2022/07/29 14:31:00;;;;;;;4.32;2.40;;;;;;;27.01;35.82;101475.53;5321607;28;20089;-71
2022/07/29 14:33:31;;;;;;;5.25;2.30;;;;;;;27.00;36.13;101473.91;5316790;28;20020;-70
2022/07/29 14:36:02;;;;;;;5.68;2.10;;;;;;;26.88;36.34;101472.94;5319924;28;20052;-70
2022/07/29 14:38:34;;;;;;;7.85;2.50;;;;;;;26.75;35.68;101473.59;5325919;28;20032;-70
2022/07/29 14:41:09;;;;;;;6.57;2.10;;;;;;;26.87;36.17;101479.84;5325926;28;20058;-69
2022/07/29 14:43:40;;;;;;;5.88;2.53;;;;;;;27.10;35.94;101476.88;5322633;28;20045;-69
2022/07/29 14:46:14;;;;;;;5.88;2.03;;;;;;;27.24;35.98;101476.25;5325196;28;20015;-69
2022/07/29 14:48:46;;;;;;;3.17;2.38;;;;;;;27.05;35.75;101477.22;5322108;28;20019;-70
2022/07/29 14:51:17;;;;;;;4.55;2.03;;;;;;;27.01;35.43;101470.66;5325370;28;20030;-69
2022/07/29 14:53:49;;;;;;;7.95;2.67;;;;;;;26.70;36.35;101479.59;5312647;28;20023;-68
2022/07/29 14:56:22;;;;;;;6.15;3.13;;;;;;;26.82;36.21;101474.50;5316955;28;20028;-70
2022/07/29 14:58:54;;;;;;;16.33;11.57;;;;;;;26.62;36.25;101473.00;5320844;28;20044;-71
2022/07/29 15:01:25;;;;;;;6.93;3.60;;;;;;;26.51;36.16;101471.97;5317423;28;20455;-69
2022/07/29 15:03:59;;;;;;;6.70;4.15;;;;;;;26.66;36.48;101471.84;5320482;28;20032;-69
2022/07/29 15:06:31;;;;;;;3.30;2.00;;;;;;;26.75;35.86;101477.25;5324418;28;20110;-69
2022/07/29 15:09:02;;;;;;;6.63;2.20;;;;;;;26.55;36.48;101476.56;5319703;28;20107;-69
2022/07/29 15:11:36;;;;;;;4.15;2.65;;;;;;;26.64;36.55;101481.97;5323615;28;20055;-69
2022/07/29 15:14:08;;;;;;;5.03;2.40;;;;;;;26.73;37.02;101473.13;5314045;28;20058;-68
2022/07/29 15:16:42;;;;;;;4.72;2.17;;;;;;;26.98;36.75;101468.59;5324238;28;20055;-70
2022/07/29 15:19:13;;;;;;;8.60;5.07;;;;;;;26.86;36.25;101472.50;5320039;28;20482;-69
2022/07/29 15:21:45;;;;;;;6.80;3.17;;;;;;;26.48;35.85;101478.44;5308275;28;20099;-69
2022/07/29 15:24:17;;;;;;;7.63;2.80;;;;;;;26.72;35.91;101482.91;5315014;28;20029;-70
2022/07/29 15:26:48;;;;;;;4.30;2.20;;;;;;;26.70;36.06;101483.28;5319402;28;20355;-68
2022/07/29 15:29:22;;;;;;;18.40;16.70;;;;;;;26.63;35.88;101483.97;5320449;28;20062;-67
2022/07/29 15:31:54;;;;;;;24.52;22.40;;;;;;;26.83;35.41;101484.66;5307972;28;20153;-67
2022/07/29 15:34:25;;;;;;;4.47;2.60;;;;;;;26.59;35.73;101482.31;5315806;28;20107;-67
2022/07/29 15:36:56;;;;;;;11.95;10.25;;;;;;;26.82;35.26;101479.38;5317078;28;20038;-67
2022/07/29 15:39:28;;;;;;;12.32;8.20;;;;;;;26.76;34.65;101473.19;5315927;28;20331;-67
2022/07/29 15:41:59;;;;;;;4.47;2.17;;;;;;;26.59;34.93;101479.47;5317620;28;20027;-68
2022/07/29 15:44:31;;;;;;;5.13;1.98;;;;;;;26.54;35.15;101469.22;5321435;28;20020;-68
2022/07/29 15:47:04;;;;;;;20.77;18.98;;;;;;;26.86;34.43;101472.50;5323282;28;20023;-68
2022/07/29 15:49:40;;;;;;;5.07;2.55;;;;;;;26.91;34.10;101467.69;5307978;28;20024;-66
2022/07/29 15:52:11;;;;;;;3.28;1.88;;;;;;;26.67;34.90;101476.31;5314572;28;20031;-66
2022/07/29 15:54:42;;;;;;;3.90;1.75;;;;;;;26.79;34.26;101469.59;5317149;28;20043;-66
2022/07/29 15:57:14;;;;;;;5.03;2.20;;;;;;;26.86;34.33;101466.81;5319703;28;20048;-66
2022/07/29 15:59:45;;;;;;;3.50;2.35;;;;;;;26.66;34.09;101471.00;5310250;28;20539;-66
2022/07/29 16:02:16;;;;;;;4.60;2.30;;;;;;;26.75;33.91;101480.09;5319951;28;20024;-65
2022/07/29 16:04:48;;;;;;;3.10;2.00;;;;;;;26.80;34.14;101488.28;5324636;28;20062;-65
2022/07/29 16:07:19;;;;;;;4.43;1.95;;;;;;;26.79;34.37;101480.13;5316657;28;20361;-65
2022/07/29 16:09:50;;;;;;;3.83;2.17;;;;;;;26.63;34.26;101488.84;5321054;28;20027;-66
2022/07/29 16:12:22;;;;;;;4.85;2.03;;;;;;;26.42;34.52;101483.66;5317307;28;20023;-67
2022/07/29 16:14:53;;;;;;;6.38;2.65;;;;;;;26.41;34.61;101482.84;5303950;28;20024;-66
2022/07/29 16:17:24;;;;;;;2.92;2.03;;;;;;;26.52;34.75;101476.47;5318355;28;20095;-67
2022/07/29 16:19:56;;;;;;;3.42;1.88;;;;;;;26.59;34.57;101480.28;5327002;28;20020;-67
2022/07/29 16:22:28;;;;;;;2.13;1.73;;;;;;;26.50;34.99;101476.84;5322925;28;20391;-68
2022/07/29 16:25:01;;;;;;;6.07;2.08;;;;;;;26.50;35.21;101478.88;5322674;28;20111;-67
2022/07/29 16:27:32;;;;;;;6.05;2.20;;;;;;;26.43;34.78;101483.28;5315400;28;20023;-67
2022/07/29 16:30:06;;;;;;;5.07;2.13;;;;;;;26.41;35.19;101471.47;5319788;28;20016;-68
2022/07/29 16:32:38;;;;;;;3.93;1.77;;;;;;;26.56;35.44;101477.38;5316259;28;20032;-67
2022/07/29 16:35:10;;;;;;;54.80;49.47;;;;;;;26.48;35.38;101476.41;5310801;28;20035;-67
2022/07/29 16:37:41;;;;;;;5.45;3.10;;;;;;;26.48;35.28;101472.75;5328281;28;20477;-67
2022/07/29 16:40:12;;;;;;;4.68;2.72;;;;;;;26.27;35.10;101476.09;5326631;28;20209;-68
2022/07/29 16:42:43;;;;;;;2.63;1.90;;;;;;;26.40;35.13;101474.66;5314709;28;20154;-67
2022/07/29 16:45:15;;;;;;;2.90;2.33;;;;;;;26.58;35.50;101474.97;5325673;28;20023;-67
2022/07/29 16:47:47;;;;;;;5.70;2.22;;;;;;;26.61;35.06;101474.19;5320626;28;20020;-67
2022/07/29 16:50:18;;;;;;;6.07;1.98;;;;;;;26.59;35.01;101477.44;5308418;28;20050;-67
2022/07/29 16:52:50;;;;;;;5.10;2.97;;;;;;;26.34;34.81;101471.34;5321208;28;20030;-67
2022/07/29 16:55:22;;;;;;;7.57;2.03;;;;;;;26.34;35.16;101470.53;5314385;28;20504;-68
2022/07/29 16:57:53;;;;;;;3.58;2.33;;;;;;;26.32;35.62;101472.94;5325092;28;20096;-68
2022/07/29 17:00:24;;;;;;;4.70;2.53;;;;;;;26.59;36.16;101477.44;5323168;28;20027;-68
2022/07/29 17:02:56;;;;;;;6.57;2.10;;;;;;;26.64;35.67;101479.13;5321946;28;20019;-68
2022/07/29 17:05:27;;;;;;;5.43;2.67;;;;;;;26.43;35.72;101474.75;5328028;28;20016;-67
2022/07/29 17:07:59;;;;;;;3.80;2.60;;;;;;;26.51;36.56;101474.81;5309433;28;20027;-68
2022/07/29 17:10:32;;;;;;;7.13;2.72;;;;;;;26.44;36.63;101472.72;5307996;28;20020;-68
2022/07/29 17:13:04;;;;;;;20.95;17.55;;;;;;;26.33;36.50;101481.09;5320794;28;20030;-69
2022/07/29 17:15:35;;;;;;;16.95;15.32;;;;;;;26.37;36.73;101478.28;5320125;28;20027;-69
2022/07/29 17:18:10;;;;;;;4.03;2.33;;;;;;;26.35;37.00;101484.34;5320390;28;20045;-68
2022/07/29 17:20:46;;;;;;;5.85;2.50;;;;;;;26.29;36.59;101485.88;5322960;28;20479;-68
2022/07/29 17:23:18;;;;;;;4.60;2.53;;;;;;;26.29;36.72;101487.91;5324686;28;20419;-69
2022/07/29 17:25:49;;;;;;;6.20;2.60;;;;;;;26.24;37.57;101489.06;5318177;28;20027;-68
2022/07/29 17:28:20;;;;;;;6.40;2.25;;;;;;;26.35;37.18;101489.22;5315067;28;20039;-68
2022/07/29 17:30:52;;;;;;;4.03;2.42;;;;;;;26.16;37.37;101490.16;5318875;28;20383;-68
